sensor_id;sensor_type;location;lat;lon;timestamp;pressure;altitude;pressure_sealevel;temperature;humidity
69855;BME280;57146;48.140;16.304;2022-10-31T00:01:16;99957.16;;;10.50;100.00
69855;BME280;57146;48.140;16.304;2022-10-31T00:03:43;99962.56;;;10.59;100.00
69855;BME280;57146;48.140;16.304;2022-10-31T00:06:10;99966.25;;;10.58;100.00
69855;BME280;57146;48.140;16.304;2022-10-31T00:08:37;99965.69;;;10.61;100.00
69855;BME280;57146;48.140;16.304;2022-10-31T00:11:08;99971.00;;;10.55;100.00
69855;BME280;57146;48.140;16.304;2022-10-31T00:13:35;99969.97;;;10.57;100.00
69855;BME280;57146;48.140;16.304;2022-10-31T00:16:03;99969.16;;;10.56;100.00
69855;BME280;57146;48.140;16.304;2022-10-31T00:18:30;99972.31;;;10.58;100.00
69855;BME280;57146;48.140;16.304;2022-10-31T00:21:01;99970.97;;;10.61;100.00
69855;BME280;57146;48.140;16.304;2022-10-31T00:23:29;99970.66;;;10.62;100.00
69855;BME280;57146;48.140;16.304;2022-10-31T00:26:01;99972.16;;;10.49;100.00
69855;BME280;57146;48.140;16.304;2022-10-31T00:28:29;99969.31;;;10.46;100.00
69855;BME280;57146;48.140;16.304;2022-10-31T00:31:00;99973.84;;;10.40;100.00
69855;BME280;57146;48.140;16.304;2022-10-31T00:33:28;99977.88;;;10.33;100.00
69855;BME280;57146;48.140;16.304;2022-10-31T00:35:55;99975.56;;;10.26;100.00
69855;BME280;57146;48.140;16.304;2022-10-31T00:38:22;99978.78;;;10.18;100.00
69855;BME280;57146;48.140;16.304;2022-10-31T00:40:49;99973.31;;;10.14;100.00
69855;BME280;57146;48.140;16.304;2022-10-31T00:43:17;99974.41;;;10.08;100.00
69855;BME280;57146;48.140;16.304;2022-10-31T00:45:44;99976.25;;;10.07;100.00
69855;BME280;57146;48.140;16.304;2022-10-31T00:48:11;99984.97;;;10.03;100.00
69855;BME280;57146;48.140;16.304;2022-10-31T00:50:39;99982.69;;;9.96;100.00
69855;BME280;57146;48.140;16.304;2022-10-31T00:53:06;99984.28;;;9.92;100.00
69855;BME280;57146;48.140;16.304;2022-10-31T00:55:33;99987.19;;;9.91;100.00
69855;BME280;57146;48.140;16.304;2022-10-31T00:58:00;99983.56;;;9.87;100.00
69855;BME280;57146;48.140;16.304;2022-10-31T01:00:28;99978.28;;;9.87;100.00
69855;BME280;57146;48.140;16.304;2022-10-31T01:02:55;99978.84;;;9.83;100.00
69855;BME280;57146;48.140;16.304;2022-10-31T01:05:22;99973.06;;;9.81;100.00
69855;BME280;57146;48.140;16.304;2022-10-31T01:07:49;99973.06;;;9.81;100.00
69855;BME280;57146;48.140;16.304;2022-10-31T01:10:16;99980.72;;;9.78;100.00
69855;BME280;57146;48.140;16.304;2022-10-31T01:12:45;99979.94;;;9.77;100.00
69855;BME280;57146;48.140;16.304;2022-10-31T01:15:16;99981.78;;;9.77;100.00
69855;BME280;57146;48.140;16.304;2022-10-31T01:17:43;99972.13;;;9.72;100.00
69855;BME280;57146;48.140;16.304;2022-10-31T01:20:11;99973.66;;;9.73;100.00
69855;BME280;57146;48.140;16.304;2022-10-31T01:22:39;99969.75;;;9.71;100.00
69855;BME280;57146;48.140;16.304;2022-10-31T01:25:07;99969.75;;;9.71;100.00
69855;BME280;57146;48.140;16.304;2022-10-31T01:27:35;99970.25;;;9.73;100.00
69855;BME280;57146;48.140;16.304;2022-10-31T01:30:02;99967.63;;;9.73;100.00
69855;BME280;57146;48.140;16.304;2022-10-31T01:32:30;99964.72;;;9.74;100.00
69855;BME280;57146;48.140;16.304;2022-10-31T01:34:57;99965.25;;;9.76;100.00
69855;BME280;57146;48.140;16.304;2022-10-31T01:37:24;99972.34;;;9.76;100.00
69855;BME280;57146;48.140;16.304;2022-10-31T01:39:51;99969.44;;;9.77;100.00
69855;BME280;57146;48.140;16.304;2022-10-31T01:42:20;99969.94;;;9.79;100.00
69855;BME280;57146;48.140;16.304;2022-10-31T01:44:59;99974.13;;;9.80;100.00
69855;BME280;57146;48.140;16.304;2022-10-31T01:47:53;99961.50;;;9.82;100.00
69855;BME280;57146;48.140;16.304;2022-10-31T01:50:35;99967.56;;;9.83;100.00
69855;BME280;57146;48.140;16.304;2022-10-31T01:53:06;99960.16;;;9.85;100.00
69855;BME280;57146;48.140;16.304;2022-10-31T01:55:40;99958.81;;;9.88;100.00
69855;BME280;57146;48.140;16.304;2022-10-31T01:58:21;99969.34;;;9.88;100.00
69855;BME280;57146;48.140;16.304;2022-10-31T02:00:53;99971.72;;;9.89;100.00
69855;BME280;57146;48.140;16.304;2022-10-31T02:03:22;99969.84;;;9.90;100.00
69855;BME280;57146;48.140;16.304;2022-10-31T02:05:53;99974.81;;;9.91;100.00
69855;BME280;57146;48.140;16.304;2022-10-31T02:08:31;99963.53;;;9.91;100.00
69855;BME280;57146;48.140;16.304;2022-10-31T02:11:00;99968.00;;;9.90;100.00
69855;BME280;57146;48.140;16.304;2022-10-31T02:13:29;99963.00;;;9.89;100.00
69855;BME280;57146;48.140;16.304;2022-10-31T02:15:58;99965.63;;;9.89;100.00
69855;BME280;57146;48.140;16.304;2022-10-31T02:18:29;99967.00;;;9.86;100.00
69855;BME280;57146;48.140;16.304;2022-10-31T02:21:07;99960.97;;;9.86;100.00
69855;BME280;57146;48.140;16.304;2022-10-31T02:43:26;99972.91;;;9.73;100.00
69855;BME280;57146;48.140;16.304;2022-10-31T02:48:47;99962.75;;;9.61;100.00
69855;BME280;57146;48.140;16.304;2022-10-31T02:51:15;99959.09;;;9.57;100.00
69855;BME280;57146;48.140;16.304;2022-10-31T02:53:43;99955.19;;;9.54;100.00
69855;BME280;57146;48.140;16.304;2022-10-31T02:56:15;99966.25;;;9.51;100.00
69855;BME280;57146;48.140;16.304;2022-10-31T02:58:55;99958.91;;;9.48;100.00
69855;BME280;57146;48.140;16.304;2022-10-31T03:01:26;99960.50;;;9.44;100.00
69855;BME280;57146;48.140;16.304;2022-10-31T03:04:22;99953.16;;;9.41;100.00
69855;BME280;57146;48.140;16.304;2022-10-31T03:10:12;99958.75;;;9.34;100.00
69855;BME280;57146;48.140;16.304;2022-10-31T03:13:12;99955.31;;;9.34;100.00
69855;BME280;57146;48.140;16.304;2022-10-31T03:15:53;99962.94;;;9.35;100.00
69855;BME280;57146;48.140;16.304;2022-10-31T03:18:30;99969.78;;;9.31;100.00
69855;BME280;57146;48.140;16.304;2022-10-31T03:23:40;99968.22;;;9.30;100.00
69855;BME280;57146;48.140;16.304;2022-10-31T03:26:19;99977.97;;;9.30;100.00
69855;BME280;57146;48.140;16.304;2022-10-31T03:29:01;99974.53;;;9.29;100.00
69855;BME280;57146;48.140;16.304;2022-10-31T03:31:33;99973.47;;;9.30;100.00
69855;BME280;57146;48.140;16.304;2022-10-31T03:34:02;99977.19;;;9.29;100.00
69855;BME280;57146;48.140;16.304;2022-10-31T03:36:31;99987.94;;;9.28;100.00
69855;BME280;57146;48.140;16.304;2022-10-31T03:39:02;99984.28;;;9.29;100.00
69855;BME280;57146;48.140;16.304;2022-10-31T03:41:35;99978.22;;;9.28;100.00
69855;BME280;57146;48.140;16.304;2022-10-31T03:44:11;99979.81;;;9.29;100.00
69855;BME280;57146;48.140;16.304;2022-10-31T03:46:41;99980.28;;;9.31;100.00
69855;BME280;57146;48.140;16.304;2022-10-31T03:49:09;99980.03;;;9.33;100.00
69855;BME280;57146;48.140;16.304;2022-10-31T03:54:13;99978.75;;;9.30;100.00
69855;BME280;57146;48.140;16.304;2022-10-31T03:56:53;99977.44;;;9.28;100.00
69855;BME280;57146;48.140;16.304;2022-10-31T03:59:44;99970.91;;;9.25;100.00
69855;BME280;57146;48.140;16.304;2022-10-31T04:02:16;99979.31;;;9.22;100.00
69855;BME280;57146;48.140;16.304;2022-10-31T04:04:46;99975.09;;;9.21;100.00
69855;BME280;57146;48.140;16.304;2022-10-31T04:07:15;99980.09;;;9.23;100.00
69855;BME280;57146;48.140;16.304;2022-10-31T04:09:45;99976.69;;;9.22;100.00
69855;BME280;57146;48.140;16.304;2022-10-31T04:12:14;99979.81;;;9.24;100.00
69855;BME280;57146;48.140;16.304;2022-10-31T04:14:46;99977.19;;;9.24;100.00
69855;BME280;57146;48.140;16.304;2022-10-31T04:17:19;99981.66;;;9.24;100.00
69855;BME280;57146;48.140;16.304;2022-10-31T04:19:47;99993.25;;;9.23;100.00
69855;BME280;57146;48.140;16.304;2022-10-31T04:22:14;99990.88;;;9.21;100.00
69855;BME280;57146;48.140;16.304;2022-10-31T04:24:41;99994.81;;;9.24;100.00
69855;BME280;57146;48.140;16.304;2022-10-31T04:27:12;99989.56;;;9.24;100.00
69855;BME280;57146;48.140;16.304;2022-10-31T04:29:39;99998.75;;;9.26;100.00
69855;BME280;57146;48.140;16.304;2022-10-31T04:32:07;99992.69;;;9.26;100.00
69855;BME280;57146;48.140;16.304;2022-10-31T04:34:34;99997.97;;;9.26;100.00
69855;BME280;57146;48.140;16.304;2022-10-31T04:37:01;99995.03;;;9.27;100.00
69855;BME280;57146;48.140;16.304;2022-10-31T04:39:28;99994.78;;;9.29;100.00
69855;BME280;57146;48.140;16.304;2022-10-31T04:42:15;99992.94;;;9.29;100.00
69855;BME280;57146;48.140;16.304;2022-10-31T04:44:43;99995.56;;;9.29;100.00
69855;BME280;57146;48.140;16.304;2022-10-31T04:47:10;99991.63;;;9.27;100.00
69855;BME280;57146;48.140;16.304;2022-10-31T04:49:37;99995.31;;;9.26;100.00
69855;BME280;57146;48.140;16.304;2022-10-31T04:52:04;99993.75;;;9.25;100.00
69855;BME280;57146;48.140;16.304;2022-10-31T04:54:32;100003.22;;;9.26;100.00
69855;BME280;57146;48.140;16.304;2022-10-31T04:57:45;99996.09;;;9.26;100.00
69855;BME280;57146;48.140;16.304;2022-10-31T05:00:16;100004.00;;;9.26;100.00
69855;BME280;57146;48.140;16.304;2022-10-31T05:02:47;100004.50;;;9.28;100.00
69855;BME280;57146;48.140;16.304;2022-10-31T05:05:16;100005.84;;;9.26;100.00
69855;BME280;57146;48.140;16.304;2022-10-31T05:07:45;99999.81;;;9.25;100.00
69855;BME280;57146;48.140;16.304;2022-10-31T05:10:15;100000.28;;;9.27;100.00
69855;BME280;57146;48.140;16.304;2022-10-31T05:13:09;100003.47;;;9.24;100.00
69855;BME280;57146;48.140;16.304;2022-10-31T05:15:55;99999.81;;;9.20;100.00
69855;BME280;57146;48.140;16.304;2022-10-31T05:18:48;100006.38;;;9.18;100.00
69855;BME280;57146;48.140;16.304;2022-10-31T05:21:38;100004.03;;;9.16;100.00
69855;BME280;57146;48.140;16.304;2022-10-31T05:24:07;100008.78;;;9.14;100.00
69855;BME280;57146;48.140;16.304;2022-10-31T05:26:35;100005.13;;;9.15;100.00
69855;BME280;57146;48.140;16.304;2022-10-31T05:29:01;100011.41;;;9.14;100.00
69855;BME280;57146;48.140;16.304;2022-10-31T05:31:29;100012.47;;;9.13;100.00
69855;BME280;57146;48.140;16.304;2022-10-31T05:33:55;100017.47;;;9.15;100.00
69855;BME280;57146;48.140;16.304;2022-10-31T05:36:25;100010.09;;;9.17;100.00
69855;BME280;57146;48.140;16.304;2022-10-31T05:39:02;100009.31;;;9.16;100.00
69855;BME280;57146;48.140;16.304;2022-10-31T05:41:40;100011.94;;;9.16;100.00
69855;BME280;57146;48.140;16.304;2022-10-31T05:44:21;100014.56;;;9.16;100.00
69855;BME280;57146;48.140;16.304;2022-10-31T05:47:07;100013.22;;;9.19;100.00
69855;BME280;57146;48.140;16.304;2022-10-31T05:49:54;100011.38;;;9.19;100.00
69855;BME280;57146;48.140;16.304;2022-10-31T05:52:36;100016.34;;;9.21;100.00
69855;BME280;57146;48.140;16.304;2022-10-31T05:55:32;100018.72;;;9.22;100.00
69855;BME280;57146;48.140;16.304;2022-10-31T05:58:17;100015.56;;;9.25;100.00
69855;BME280;57146;48.140;16.304;2022-10-31T06:00:58;100013.47;;;9.22;100.00
69855;BME280;57146;48.140;16.304;2022-10-31T06:03:25;100025.03;;;9.21;100.00
69855;BME280;57146;48.140;16.304;2022-10-31T06:05:55;100026.09;;;9.20;100.00
69855;BME280;57146;48.140;16.304;2022-10-31T06:08:25;100027.66;;;9.21;100.00
69855;BME280;57146;48.140;16.304;2022-10-31T06:10:54;100025.31;;;9.20;100.00
69855;BME280;57146;48.140;16.304;2022-10-31T06:13:41;100026.13;;;9.15;100.00
69855;BME280;57146;48.140;16.304;2022-10-31T06:16:16;100035.03;;;9.14;100.00
69855;BME280;57146;48.140;16.304;2022-10-31T06:18:46;100031.91;;;9.12;100.00
69855;BME280;57146;48.140;16.304;2022-10-31T06:21:13;100031.13;;;9.11;100.00
69855;BME280;57146;48.140;16.304;2022-10-31T06:23:45;100040.06;;;9.10;100.00
69855;BME280;57146;48.140;16.304;2022-10-31T06:26:34;100040.88;;;9.11;100.00
69855;BME280;57146;48.140;16.304;2022-10-31T06:29:01;100044.28;;;9.11;100.00
69855;BME280;57146;48.140;16.304;2022-10-31T06:31:53;100045.53;;;9.14;100.00
69855;BME280;57146;48.140;16.304;2022-10-31T06:34:20;100041.34;;;9.13;100.00
69855;BME280;57146;48.140;16.304;2022-10-31T06:36:47;100040.28;;;9.14;100.00
69855;BME280;57146;48.140;16.304;2022-10-31T06:39:15;100046.06;;;9.16;100.00
69855;BME280;57146;48.140;16.304;2022-10-31T06:41:42;100045.53;;;9.14;100.00
69855;BME280;57146;48.140;16.304;2022-10-31T06:44:09;100049.22;;;9.18;100.00
69855;BME280;57146;48.140;16.304;2022-10-31T06:46:55;100047.63;;;9.17;100.00
69855;BME280;57146;48.140;16.304;2022-10-31T06:49:40;100050.00;;;9.19;100.00
69855;BME280;57146;48.140;16.304;2022-10-31T06:52:13;100043.16;;;9.18;100.00
69855;BME280;57146;48.140;16.304;2022-10-31T06:54:40;100045.00;;;9.17;100.00
69855;BME280;57146;48.140;16.304;2022-10-31T06:57:08;100054.72;;;9.17;100.00
69855;BME280;57146;48.140;16.304;2022-10-31T06:59:37;100050.25;;;9.17;100.00
69855;BME280;57146;48.140;16.304;2022-10-31T07:02:16;100057.38;;;9.17;100.00
69855;BME280;57146;48.140;16.304;2022-10-31T07:04:44;100061.31;;;9.19;100.00
69855;BME280;57146;48.140;16.304;2022-10-31T07:07:15;100049.72;;;9.20;100.00
69855;BME280;57146;48.140;16.304;2022-10-31T07:09:43;100063.38;;;9.22;100.00
69855;BME280;57146;48.140;16.304;2022-10-31T07:12:13;100061.25;;;9.24;100.00
69855;BME280;57146;48.140;16.304;2022-10-31T07:14:50;100065.97;;;9.27;100.00
69855;BME280;57146;48.140;16.304;2022-10-31T07:17:17;100069.66;;;9.26;100.00
69855;BME280;57146;48.140;16.304;2022-10-31T07:19:44;100070.41;;;9.32;100.00
69855;BME280;57146;48.140;16.304;2022-10-31T07:22:14;100067.53;;;9.33;100.00
69855;BME280;57146;48.140;16.304;2022-10-31T07:24:43;100061.22;;;9.34;100.00
69855;BME280;57146;48.140;16.304;2022-10-31T07:27:44;100066.22;;;9.36;100.00
69855;BME280;57146;48.140;16.304;2022-10-31T07:30:12;100068.28;;;9.39;100.00
69855;BME280;57146;48.140;16.304;2022-10-31T07:32:46;100055.66;;;9.41;100.00
69855;BME280;57146;48.140;16.304;2022-10-31T07:35:20;100061.69;;;9.42;100.00
69855;BME280;57146;48.140;16.304;2022-10-31T07:37:55;100066.41;;;9.45;100.00
69855;BME280;57146;48.140;16.304;2022-10-31T07:40:23;100065.88;;;9.48;100.00
69855;BME280;57146;48.140;16.304;2022-10-31T07:42:52;100064.03;;;9.48;100.00
69855;BME280;57146;48.140;16.304;2022-10-31T07:45:51;100071.38;;;9.51;100.00
69855;BME280;57146;48.140;16.304;2022-10-31T07:48:37;100067.16;;;9.50;100.00
69855;BME280;57146;48.140;16.304;2022-10-31T07:51:22;100072.66;;;9.54;100.00
69855;BME280;57146;48.140;16.304;2022-10-31T07:54:07;100073.94;;;9.56;100.00
69855;BME280;57146;48.140;16.304;2022-10-31T07:56:34;100073.16;;;9.56;100.00
69855;BME280;57146;48.140;16.304;2022-10-31T07:59:01;100071.84;;;9.58;100.00
69855;BME280;57146;48.140;16.304;2022-10-31T08:01:28;100071.06;;;9.58;100.00
69855;BME280;57146;48.140;16.304;2022-10-31T08:04:15;100077.63;;;9.61;100.00
69855;BME280;57146;48.140;16.304;2022-10-31T08:07:00;100071.03;;;9.63;100.00
69855;BME280;57146;48.140;16.304;2022-10-31T08:09:33;100071.03;;;9.63;100.00
69855;BME280;57146;48.140;16.304;2022-10-31T08:12:05;100073.09;;;9.66;100.00
69855;BME280;57146;48.140;16.304;2022-10-31T08:14:34;100073.34;;;9.70;100.00
69855;BME280;57146;48.140;16.304;2022-10-31T08:17:01;100077.28;;;9.72;100.00
69855;BME280;57146;48.140;16.304;2022-10-31T08:19:38;100073.56;;;9.73;100.00
69855;BME280;57146;48.140;16.304;2022-10-31T08:22:05;100075.44;;;9.73;100.00
69855;BME280;57146;48.140;16.304;2022-10-31T08:24:31;100064.63;;;9.74;100.00
69855;BME280;57146;48.140;16.304;2022-10-31T08:26:59;100069.34;;;9.77;100.00
69855;BME280;57146;48.140;16.304;2022-10-31T08:29:26;100065.94;;;9.77;100.00
69855;BME280;57146;48.140;16.304;2022-10-31T08:31:53;100066.16;;;9.80;100.00
69855;BME280;57146;48.140;16.304;2022-10-31T08:34:52;100060.66;;;9.82;100.00
69855;BME280;57146;48.140;16.304;2022-10-31T08:37:38;100062.69;;;9.85;100.00
69855;BME280;57146;48.140;16.304;2022-10-31T08:40:07;100062.94;;;9.89;100.00
69855;BME280;57146;48.140;16.304;2022-10-31T08:42:34;100062.38;;;9.92;100.00
69855;BME280;57146;48.140;16.304;2022-10-31T08:45:01;100059.50;;;9.93;100.00
69855;BME280;57146;48.140;16.304;2022-10-31T08:47:31;100052.09;;;9.95;100.00
69855;BME280;57146;48.140;16.304;2022-10-31T08:49:58;100057.09;;;9.97;100.00
69855;BME280;57146;48.140;16.304;2022-10-31T08:52:25;100056.31;;;9.96;100.00
69855;BME280;57146;48.140;16.304;2022-10-31T08:55:12;100051.06;;;9.96;100.00
69855;BME280;57146;48.140;16.304;2022-10-31T08:57:57;100060.75;;;10.01;100.00
69855;BME280;57146;48.140;16.304;2022-10-31T09:00:34;100058.63;;;10.03;100.00
69855;BME280;57146;48.140;16.304;2022-10-31T09:03:18;100051.47;;;10.08;100.00
69855;BME280;57146;48.140;16.304;2022-10-31T09:05:46;100054.41;;;10.07;100.00
69855;BME280;57146;48.140;16.304;2022-10-31T09:08:15;100059.06;;;10.10;100.00
69855;BME280;57146;48.140;16.304;2022-10-31T09:10:45;100055.41;;;10.11;100.00
69855;BME280;57146;48.140;16.304;2022-10-31T09:13:18;100060.13;;;10.14;100.00
69855;BME280;57146;48.140;16.304;2022-10-31T09:16:15;100055.34;;;10.16;100.00
69855;BME280;57146;48.140;16.304;2022-10-31T09:18:43;100059.06;;;10.15;100.00
69855;BME280;57146;48.140;16.304;2022-10-31T09:21:09;100068.25;;;10.18;100.00
69855;BME280;57146;48.140;16.304;2022-10-31T09:23:36;100066.41;;;10.18;100.00
69855;BME280;57146;48.140;16.304;2022-10-31T09:26:03;100064.00;;;10.22;100.00
69855;BME280;57146;48.140;16.304;2022-10-31T09:28:40;100066.06;;;10.25;100.00
69855;BME280;57146;48.140;16.304;2022-10-31T09:31:12;100063.19;;;10.26;100.00
69855;BME280;57146;48.140;16.304;2022-10-31T09:33:48;100062.91;;;10.23;100.00
69855;BME280;57146;48.140;16.304;2022-10-31T09:36:41;100066.63;;;10.22;100.00
69855;BME280;57146;48.140;16.304;2022-10-31T09:39:16;100060.84;;;10.20;100.00
69855;BME280;57146;48.140;16.304;2022-10-31T09:44:59;100067.13;;;10.24;100.00
69855;BME280;57146;48.140;16.304;2022-10-31T09:47:52;100055.81;;;10.28;100.00
69855;BME280;57146;48.140;16.304;2022-10-31T09:50:44;100059.47;;;10.27;100.00
69855;BME280;57146;48.140;16.304;2022-10-31T09:53:46;100064.72;;;10.33;100.00
69855;BME280;57146;48.140;16.304;2022-10-31T09:56:21;100059.16;;;10.34;100.00
69855;BME280;57146;48.140;16.304;2022-10-31T09:58:55;100059.38;;;10.38;100.00
69855;BME280;57146;48.140;16.304;2022-10-31T10:04:02;100060.94;;;10.39;100.00
69855;BME280;57146;48.140;16.304;2022-10-31T10:06:54;100058.31;;;10.39;100.00
69855;BME280;57146;48.140;16.304;2022-10-31T10:09:50;100060.13;;;10.43;100.00
69855;BME280;57146;48.140;16.304;2022-10-31T10:12:48;100056.16;;;10.46;100.00
69855;BME280;57146;48.140;16.304;2022-10-31T10:26:25;100056.41;;;10.49;100.00
69855;BME280;57146;48.140;16.304;2022-10-31T10:31:39;100055.31;;;10.50;100.00
69855;BME280;57146;48.140;16.304;2022-10-31T10:36:52;100050.53;;;10.52;100.00
69855;BME280;57146;48.140;16.304;2022-10-31T10:39:31;100052.13;;;10.53;100.00
69855;BME280;57146;48.140;16.304;2022-10-31T10:42:08;100042.59;;;10.58;100.00
69855;BME280;57146;48.140;16.304;2022-10-31T10:44:39;100041.28;;;10.60;100.00
69855;BME280;57146;48.140;16.304;2022-10-31T10:47:09;100050.72;;;10.61;100.00
69855;BME280;57146;48.140;16.304;2022-10-31T10:49:49;100040.19;;;10.61;100.00
69855;BME280;57146;48.140;16.304;2022-10-31T10:55:41;100032.78;;;10.63;100.00
69855;BME280;57146;48.140;16.304;2022-10-31T10:58:12;100037.00;;;10.64;100.00
69855;BME280;57146;48.140;16.304;2022-10-31T11:00:44;100030.66;;;10.65;100.00
69855;BME280;57146;48.140;16.304;2022-10-31T11:03:13;100030.09;;;10.68;100.00
69855;BME280;57146;48.140;16.304;2022-10-31T11:13:49;100029.56;;;10.71;100.00
69855;BME280;57146;48.140;16.304;2022-10-31T11:16:38;100024.28;;;10.71;100.00
69855;BME280;57146;48.140;16.304;2022-10-31T11:21:43;100015.38;;;10.67;100.00
69855;BME280;57146;48.140;16.304;2022-10-31T11:24:21;100017.94;;;10.72;100.00
69855;BME280;57146;48.140;16.304;2022-10-31T11:26:50;100025.91;;;10.67;100.00
69855;BME280;57146;48.140;16.304;2022-10-31T11:29:21;100024.00;;;10.73;100.00
69855;BME280;57146;48.140;16.304;2022-10-31T11:31:54;100019.03;;;10.71;100.00
69855;BME280;57146;48.140;16.304;2022-10-31T11:34:32;100021.91;;;10.70;100.00
69855;BME280;57146;48.140;16.304;2022-10-31T11:37:19;100007.72;;;10.71;100.00
69855;BME280;57146;48.140;16.304;2022-10-31T11:39:53;100006.84;;;10.75;100.00
69855;BME280;57146;48.140;16.304;2022-10-31T11:42:37;99996.53;;;10.79;100.00
69855;BME280;57146;48.140;16.304;2022-10-31T11:45:16;100007.06;;;10.79;100.00
69855;BME280;57146;48.140;16.304;2022-10-31T11:47:48;100002.59;;;10.79;100.00
69855;BME280;57146;48.140;16.304;2022-10-31T11:50:28;99995.75;;;10.78;100.00
69855;BME280;57146;48.140;16.304;2022-10-31T11:52:58;99995.97;;;10.82;100.00
69855;BME280;57146;48.140;16.304;2022-10-31T11:55:32;99997.03;;;10.81;100.00
69855;BME280;57146;48.140;16.304;2022-10-31T11:58:01;99991.19;;;10.84;100.00
69855;BME280;57146;48.140;16.304;2022-10-31T12:00:32;99995.13;;;10.87;100.00
69855;BME280;57146;48.140;16.304;2022-10-31T12:08:32;99993.44;;;10.96;100.00
69855;BME280;57146;48.140;16.304;2022-10-31T12:14:10;99980.03;;;10.92;100.00
69855;BME280;57146;48.140;16.304;2022-10-31T12:27:57;99972.78;;;11.03;100.00
69855;BME280;57146;48.140;16.304;2022-10-31T12:33:36;99967.50;;;11.03;100.00
69855;BME280;57146;48.140;16.304;2022-10-31T12:36:15;99970.72;;;11.00;100.00
69855;BME280;57146;48.140;16.304;2022-10-31T12:55:04;99972.91;;;11.12;100.00
69855;BME280;57146;48.140;16.304;2022-10-31T12:57:42;99976.31;;;11.12;100.00
69855;BME280;57146;48.140;16.304;2022-10-31T13:00:17;99968.94;;;11.14;100.00
69855;BME280;57146;48.140;16.304;2022-10-31T13:05:46;99970.50;;;11.15;100.00
69855;BME280;57146;48.140;16.304;2022-10-31T13:08:26;99964.72;;;11.13;100.00
69855;BME280;57146;48.140;16.304;2022-10-31T13:11:13;99962.88;;;11.14;100.00
69855;BME280;57146;48.140;16.304;2022-10-31T13:13:53;99964.44;;;11.15;100.00
69855;BME280;57146;48.140;16.304;2022-10-31T13:16:25;99958.41;;;11.14;100.00
69855;BME280;57146;48.140;16.304;2022-10-31T13:19:31;99960.94;;;11.19;100.00
69855;BME280;57146;48.140;16.304;2022-10-31T13:22:07;99956.75;;;11.18;100.00
69855;BME280;57146;48.140;16.304;2022-10-31T13:24:36;99960.94;;;11.19;100.00
69855;BME280;57146;48.140;16.304;2022-10-31T13:27:13;99954.38;;;11.17;100.00
69855;BME280;57146;48.140;16.304;2022-10-31T13:29:55;99952.81;;;11.16;100.00
69855;BME280;57146;48.140;16.304;2022-10-31T13:32:27;99947.28;;;11.17;100.00
69855;BME280;57146;48.140;16.304;2022-10-31T13:34:58;99946.22;;;11.18;100.00
69855;BME280;57146;48.140;16.304;2022-10-31T13:37:31;99943.84;;;11.17;100.00
69855;BME280;57146;48.140;16.304;2022-10-31T13:45:49;99941.84;;;11.09;100.00
69855;BME280;57146;48.140;16.304;2022-10-31T13:48:34;99944.44;;;11.14;100.00
69855;BME280;57146;48.140;16.304;2022-10-31T13:51:07;99942.63;;;11.09;100.00
69855;BME280;57146;48.140;16.304;2022-10-31T13:53:45;99936.03;;;11.12;100.00
69855;BME280;57146;48.140;16.304;2022-10-31T13:56:29;99946.56;;;11.12;100.00
69855;BME280;57146;48.140;16.304;2022-10-31T14:01:46;99942.00;;;11.17;100.00
69855;BME280;57146;48.140;16.304;2022-10-31T14:04:26;99944.06;;;11.20;100.00
69855;BME280;57146;48.140;16.304;2022-10-31T14:07:07;99922.19;;;11.20;100.00
69855;BME280;57146;48.140;16.304;2022-10-31T14:09:37;99930.88;;;11.20;100.00
69855;BME280;57146;48.140;16.304;2022-10-31T14:12:22;99931.47;;;11.17;100.00
69855;BME280;57146;48.140;16.304;2022-10-31T14:14:54;99920.44;;;11.15;100.00
69855;BME280;57146;48.140;16.304;2022-10-31T14:17:25;99918.78;;;11.19;100.00
69855;BME280;57146;48.140;16.304;2022-10-31T14:20:31;99922.97;;;11.20;100.00
69855;BME280;57146;48.140;16.304;2022-10-31T14:25:39;99913.50;;;11.19;100.00
69855;BME280;57146;48.140;16.304;2022-10-31T14:28:32;99910.88;;;11.19;100.00
69855;BME280;57146;48.140;16.304;2022-10-31T14:31:00;99913.81;;;11.18;100.00
69855;BME280;57146;48.140;16.304;2022-10-31T14:33:29;99912.22;;;11.17;100.00
69855;BME280;57146;48.140;16.304;2022-10-31T14:36:08;99909.31;;;11.18;100.00
69855;BME280;57146;48.140;16.304;2022-10-31T14:41:40;99910.88;;;11.19;100.00
69855;BME280;57146;48.140;16.304;2022-10-31T14:44:20;99905.91;;;11.18;100.00
69855;BME280;57146;48.140;16.304;2022-10-31T14:52:14;99905.75;;;11.09;100.00
69855;BME280;57146;48.140;16.304;2022-10-31T14:54:47;99902.91;;;11.06;100.00
69855;BME280;57146;48.140;16.304;2022-10-31T14:57:32;99902.91;;;11.06;100.00
69855;BME280;57146;48.140;16.304;2022-10-31T15:00:07;99906.13;;;11.02;100.00
69855;BME280;57146;48.140;16.304;2022-10-31T15:02:51;99907.75;;;10.98;100.00
69855;BME280;57146;48.140;16.304;2022-10-31T15:05:22;99899.78;;;11.03;100.00
69855;BME280;57146;48.140;16.304;2022-10-31T15:07:52;99902.69;;;11.02;100.00
69855;BME280;57146;48.140;16.304;2022-10-31T15:12:54;99894.53;;;11.03;100.00
69855;BME280;57146;48.140;16.304;2022-10-31T15:15:23;99897.38;;;11.07;100.00
69855;BME280;57146;48.140;16.304;2022-10-31T15:17:56;99890.25;;;11.08;100.00
69855;BME280;57146;48.140;16.304;2022-10-31T15:20:30;99887.09;;;11.06;100.00
69855;BME280;57146;48.140;16.304;2022-10-31T15:22:59;99891.13;;;11.03;100.00
69855;BME280;57146;48.140;16.304;2022-10-31T15:25:31;99891.38;;;11.01;100.00
69855;BME280;57146;48.140;16.304;2022-10-31T15:28:00;99884.25;;;11.02;100.00